createdAt,value
2018-06-21T00:01:27.225Z,36
2018-06-21T00:11:26.960Z,36
2018-06-21T00:21:27.211Z,37
2018-06-21T00:31:27.092Z,37
2018-06-21T00:41:31.728Z,36
2018-06-21T00:51:27.509Z,36
2018-06-21T01:01:27.751Z,37
2018-06-21T01:11:28.559Z,36
2018-06-21T01:21:27.843Z,37
2018-06-21T01:31:28.845Z,36
2018-06-21T01:41:27.606Z,36
2018-06-21T01:51:27.788Z,38
2018-06-21T02:01:27.569Z,37
2018-06-21T02:11:29.262Z,36
2018-06-21T02:21:27.554Z,38
2018-06-21T02:31:27.395Z,37
2018-06-21T02:41:29.230Z,36
2018-06-21T02:51:27.811Z,37
2018-06-21T03:01:27.757Z,37
2018-06-21T03:11:27.882Z,38
2018-06-21T03:21:26.997Z,37
2018-06-21T03:31:27.173Z,38
2018-06-21T03:41:26.958Z,37
2018-06-21T03:51:26.858Z,38
2018-06-21T04:01:28.386Z,37
2018-06-21T04:11:27.420Z,38
2018-06-21T04:21:28.204Z,37
2018-06-21T04:31:27.172Z,38
2018-06-21T04:41:28.532Z,37
2018-06-21T04:51:28.515Z,36
2018-06-21T05:01:27.455Z,37
2018-06-21T05:11:29.412Z,35
2018-06-21T05:21:27.701Z,38
2018-06-21T05:31:28.253Z,36
2018-06-21T05:41:28.163Z,36
2018-06-21T05:51:27.137Z,36
2018-06-21T06:01:27.047Z,37
2018-06-21T06:11:28.598Z,35
2018-06-21T06:21:29.909Z,35
2018-06-21T06:31:26.960Z,37
2018-06-21T06:41:27.194Z,36
2018-06-21T06:51:27.319Z,35
2018-06-21T07:01:27.829Z,35
2018-06-21T07:11:28.050Z,36
2018-06-21T07:21:27.141Z,35
2018-06-21T07:31:27.558Z,35
2018-06-21T07:41:28.087Z,35
2018-06-21T07:51:27.226Z,36
2018-06-21T08:01:28.599Z,34
2018-06-21T08:11:28.999Z,34
2018-06-21T08:21:27.447Z,36
2018-06-21T08:31:29.737Z,34
2018-06-21T08:41:28.575Z,34
2018-06-21T08:51:27.807Z,35
2018-06-21T09:01:28.122Z,36
2018-06-21T09:11:27.031Z,35
2018-06-21T09:21:28.070Z,34
2018-06-21T09:31:27.239Z,35
2018-06-21T09:41:27.473Z,35
2018-06-21T09:51:27.600Z,34
2018-06-21T10:01:27.671Z,35
2018-06-21T10:11:27.928Z,35
2018-06-21T10:21:27.050Z,35
2018-06-21T10:31:28.112Z,32
2018-06-21T10:41:27.530Z,34
2018-06-21T10:51:27.711Z,33
2018-06-21T11:01:27.955Z,33
2018-06-21T11:11:27.203Z,34
2018-06-21T11:21:30.288Z,32
2018-06-21T11:31:28.911Z,32
2018-06-21T11:41:27.143Z,33
2018-06-21T11:51:28.607Z,32
2018-06-21T12:01:28.385Z,33
2018-06-21T12:11:28.207Z,32
2018-06-21T12:21:27.731Z,33
2018-06-21T12:31:28.565Z,32
2018-06-21T12:41:29.140Z,32
2018-06-21T12:51:27.344Z,33
2018-06-21T13:01:32.917Z,32
2018-06-21T13:11:27.700Z,31
2018-06-21T13:21:29.413Z,31
2018-06-21T13:31:27.669Z,32
2018-06-21T13:41:30.026Z,32
2018-06-21T13:51:26.957Z,32
2018-06-21T14:01:27.129Z,32
2018-06-21T14:11:29.494Z,31
2018-06-21T14:21:33.823Z,31
2018-06-21T14:31:30.846Z,31
2018-06-21T14:41:27.929Z,31
2018-06-21T14:51:28.495Z,31
2018-06-21T15:01:28.013Z,31
2018-06-21T15:11:28.459Z,31
2018-06-21T15:21:28.549Z,31
2018-06-21T15:31:28.353Z,31
2018-06-21T15:41:27.405Z,31
2018-06-21T15:51:27.502Z,32
2018-06-21T16:01:28.115Z,31
2018-06-21T16:11:30.632Z,31
2018-06-21T16:21:28.431Z,31
2018-06-21T16:31:32.878Z,31
2018-06-21T16:41:29.812Z,30
2018-06-21T16:51:28.415Z,30
2018-06-21T17:01:27.607Z,30
2018-06-21T17:11:28.912Z,31
2018-06-21T17:21:27.946Z,31
2018-06-21T17:31:29.346Z,31
2018-06-21T17:41:28.827Z,31
2018-06-21T17:51:28.161Z,32
2018-06-21T18:01:27.466Z,31
2018-06-21T18:11:28.325Z,32
2018-06-21T18:21:27.769Z,32
2018-06-21T18:31:28.254Z,33
2018-06-21T18:41:27.207Z,32
2018-06-21T18:51:27.429Z,33
2018-06-21T19:01:27.571Z,32
2018-06-21T19:11:27.944Z,34
2018-06-21T19:21:28.070Z,34
2018-06-21T19:31:27.807Z,34
2018-06-21T19:41:28.124Z,36
2018-06-21T19:51:27.424Z,35
2018-06-21T20:01:27.631Z,35
2018-06-21T20:11:37.039Z,36
2018-06-21T20:21:27.396Z,37
2018-06-21T20:31:28.266Z,37
2018-06-21T20:41:32.633Z,36
2018-06-21T20:51:27.550Z,37
2018-06-21T21:01:28.475Z,37
2018-06-21T21:11:27.917Z,36
2018-06-21T21:21:28.051Z,37
2018-06-21T21:31:26.902Z,37
2018-06-21T21:41:27.380Z,38
2018-06-21T21:51:29.100Z,37
2018-06-21T22:01:28.256Z,37
2018-06-21T22:11:29.442Z,37
2018-06-21T22:21:28.863Z,38
2018-06-21T22:31:28.126Z,39
2018-06-21T22:41:28.208Z,39
2018-06-21T22:51:29.221Z,39
2018-06-21T23:01:27.354Z,39
2018-06-21T23:11:28.198Z,38
2018-06-21T23:21:28.584Z,39
2018-06-21T23:31:28.489Z,39
2018-06-21T23:41:28.728Z,39
2018-06-21T23:51:28.769Z,39
